sensor_id;sensor_type;location;lat;lon;timestamp;temperature;humidity
9965;DHT22;5023;53.554;9.964;2023-04-19T00:00:37;7.30;99.90
9965;DHT22;5023;53.554;9.964;2023-04-19T00:05:39;7.30;99.90
9965;DHT22;5023;53.554;9.964;2023-04-19T00:10:43;7.20;99.90
9965;DHT22;5023;53.554;9.964;2023-04-19T00:15:45;7.20;99.90
9965;DHT22;5023;53.554;9.964;2023-04-19T00:20:48;7.20;99.90
9965;DHT22;5023;53.554;9.964;2023-04-19T00:25:51;7.10;99.90
9965;DHT22;5023;53.554;9.964;2023-04-19T00:30:53;7.00;99.90
9965;DHT22;5023;53.554;9.964;2023-04-19T00:35:55;7.00;99.90
9965;DHT22;5023;53.554;9.964;2023-04-19T00:40:59;6.90;99.90
9965;DHT22;5023;53.554;9.964;2023-04-19T00:46:01;6.90;99.90
9965;DHT22;5023;53.554;9.964;2023-04-19T00:51:03;6.80;99.90
9965;DHT22;5023;53.554;9.964;2023-04-19T00:56:07;6.80;99.90
9965;DHT22;5023;53.554;9.964;2023-04-19T01:01:10;6.70;99.90
9965;DHT22;5023;53.554;9.964;2023-04-19T01:06:13;6.70;99.90
9965;DHT22;5023;53.554;9.964;2023-04-19T01:11:16;6.70;99.90
9965;DHT22;5023;53.554;9.964;2023-04-19T01:16:19;6.70;99.90
9965;DHT22;5023;53.554;9.964;2023-04-19T01:21:21;6.70;99.90
9965;DHT22;5023;53.554;9.964;2023-04-19T01:26:25;6.70;99.90
9965;DHT22;5023;53.554;9.964;2023-04-19T01:31:27;6.70;99.90
9965;DHT22;5023;53.554;9.964;2023-04-19T01:36:29;6.70;99.90
9965;DHT22;5023;53.554;9.964;2023-04-19T01:41:33;6.70;99.90
9965;DHT22;5023;53.554;9.964;2023-04-19T01:46:35;6.60;99.90
9965;DHT22;5023;53.554;9.964;2023-04-19T01:51:38;6.60;99.90
9965;DHT22;5023;53.554;9.964;2023-04-19T01:56:42;6.60;99.90
9965;DHT22;5023;53.554;9.964;2023-04-19T02:01:44;6.60;99.90
9965;DHT22;5023;53.554;9.964;2023-04-19T02:06:46;6.60;99.90
9965;DHT22;5023;53.554;9.964;2023-04-19T02:11:50;6.60;99.90
9965;DHT22;5023;53.554;9.964;2023-04-19T02:16:52;6.60;99.90
9965;DHT22;5023;53.554;9.964;2023-04-19T02:22:00;6.60;99.90
9965;DHT22;5023;53.554;9.964;2023-04-19T02:27:15;6.60;99.90
9965;DHT22;5023;53.554;9.964;2023-04-19T02:32:19;6.50;99.90
9965;DHT22;5023;53.554;9.964;2023-04-19T02:37:23;6.50;99.90
9965;DHT22;5023;53.554;9.964;2023-04-19T02:42:31;6.50;99.90
9965;DHT22;5023;53.554;9.964;2023-04-19T02:47:33;6.40;99.90
9965;DHT22;5023;53.554;9.964;2023-04-19T02:52:35;6.40;99.90
9965;DHT22;5023;53.554;9.964;2023-04-19T02:57:39;6.40;99.90
9965;DHT22;5023;53.554;9.964;2023-04-19T03:02:42;6.40;99.90
9965;DHT22;5023;53.554;9.964;2023-04-19T03:07:44;6.40;99.90
9965;DHT22;5023;53.554;9.964;2023-04-19T03:12:48;6.40;99.90
9965;DHT22;5023;53.554;9.964;2023-04-19T03:17:51;6.40;99.90
9965;DHT22;5023;53.554;9.964;2023-04-19T03:22:53;6.30;99.90
9965;DHT22;5023;53.554;9.964;2023-04-19T03:27:57;6.20;99.90
9965;DHT22;5023;53.554;9.964;2023-04-19T03:32:59;6.20;99.90
9965;DHT22;5023;53.554;9.964;2023-04-19T03:38:01;6.20;99.90
9965;DHT22;5023;53.554;9.964;2023-04-19T03:43:05;6.10;99.90
9965;DHT22;5023;53.554;9.964;2023-04-19T03:48:07;6.10;99.90
9965;DHT22;5023;53.554;9.964;2023-04-19T03:53:09;6.10;99.90
9965;DHT22;5023;53.554;9.964;2023-04-19T03:58:13;6.10;99.90
9965;DHT22;5023;53.554;9.964;2023-04-19T04:03:15;6.10;99.90
9965;DHT22;5023;53.554;9.964;2023-04-19T04:08:18;6.10;99.90
9965;DHT22;5023;53.554;9.964;2023-04-19T04:13:21;6.10;99.90
9965;DHT22;5023;53.554;9.964;2023-04-19T04:18:23;6.00;99.90
9965;DHT22;5023;53.554;9.964;2023-04-19T04:23:27;6.00;99.90
9965;DHT22;5023;53.554;9.964;2023-04-19T04:28:31;6.00;99.90
9965;DHT22;5023;53.554;9.964;2023-04-19T04:33:33;5.90;99.90
9965;DHT22;5023;53.554;9.964;2023-04-19T04:38:35;6.00;99.90
9965;DHT22;5023;53.554;9.964;2023-04-19T04:43:39;6.00;99.90
9965;DHT22;5023;53.554;9.964;2023-04-19T04:48:41;6.10;99.90
9965;DHT22;5023;53.554;9.964;2023-04-19T04:53:43;6.10;99.90
9965;DHT22;5023;53.554;9.964;2023-04-19T04:58:48;6.10;99.90
9965;DHT22;5023;53.554;9.964;2023-04-19T05:03:51;6.10;99.90
9965;DHT22;5023;53.554;9.964;2023-04-19T05:08:53;6.10;99.90
9965;DHT22;5023;53.554;9.964;2023-04-19T05:13:57;6.20;99.90
9965;DHT22;5023;53.554;9.964;2023-04-19T05:18:59;6.30;99.90
9965;DHT22;5023;53.554;9.964;2023-04-19T05:24:04;6.40;99.90
9965;DHT22;5023;53.554;9.964;2023-04-19T05:29:07;6.40;99.90
9965;DHT22;5023;53.554;9.964;2023-04-19T05:34:10;6.50;99.90
9965;DHT22;5023;53.554;9.964;2023-04-19T05:39:13;6.60;99.90
9965;DHT22;5023;53.554;9.964;2023-04-19T05:44:18;6.60;99.90
9965;DHT22;5023;53.554;9.964;2023-04-19T05:49:21;6.70;99.90
9965;DHT22;5023;53.554;9.964;2023-04-19T05:54:23;6.70;99.90
9965;DHT22;5023;53.554;9.964;2023-04-19T05:59:29;6.90;99.90
9965;DHT22;5023;53.554;9.964;2023-04-19T06:04:31;7.00;99.90
9965;DHT22;5023;53.554;9.964;2023-04-19T06:09:34;7.20;99.90
9965;DHT22;5023;53.554;9.964;2023-04-19T06:14:37;7.30;99.90
9965;DHT22;5023;53.554;9.964;2023-04-19T06:19:40;7.40;99.90
9965;DHT22;5023;53.554;9.964;2023-04-19T06:24:43;7.60;99.90
9965;DHT22;5023;53.554;9.964;2023-04-19T06:29:47;7.70;99.90
9965;DHT22;5023;53.554;9.964;2023-04-19T06:34:49;7.80;99.90
9965;DHT22;5023;53.554;9.964;2023-04-19T06:39:52;7.80;99.90
9965;DHT22;5023;53.554;9.964;2023-04-19T06:44:55;7.90;99.90
9965;DHT22;5023;53.554;9.964;2023-04-19T06:49:57;8.00;99.90
9965;DHT22;5023;53.554;9.964;2023-04-19T06:55:00;8.10;99.90
9965;DHT22;5023;53.554;9.964;2023-04-19T07:00:04;8.30;99.90
9965;DHT22;5023;53.554;9.964;2023-04-19T07:05:08;8.40;99.90
9965;DHT22;5023;53.554;9.964;2023-04-19T07:10:10;8.60;99.90
9965;DHT22;5023;53.554;9.964;2023-04-19T07:15:14;8.80;99.90
9965;DHT22;5023;53.554;9.964;2023-04-19T07:20:16;9.00;99.90
9965;DHT22;5023;53.554;9.964;2023-04-19T07:25:18;9.20;99.90
9965;DHT22;5023;53.554;9.964;2023-04-19T07:30:22;9.40;99.90
9965;DHT22;5023;53.554;9.964;2023-04-19T07:35:24;9.60;99.90
9965;DHT22;5023;53.554;9.964;2023-04-19T07:40:26;9.80;99.90
9965;DHT22;5023;53.554;9.964;2023-04-19T07:45:31;9.80;99.90
9965;DHT22;5023;53.554;9.964;2023-04-19T07:50:33;9.90;99.90
9965;DHT22;5023;53.554;9.964;2023-04-19T07:55:35;10.20;99.90
9965;DHT22;5023;53.554;9.964;2023-04-19T08:00:38;10.40;99.20
9965;DHT22;5023;53.554;9.964;2023-04-19T08:05:40;10.50;97.00
9965;DHT22;5023;53.554;9.964;2023-04-19T08:10:43;10.60;95.30
9965;DHT22;5023;53.554;9.964;2023-04-19T08:15:46;10.60;95.00
9965;DHT22;5023;53.554;9.964;2023-04-19T08:20:49;10.80;93.00
9965;DHT22;5023;53.554;9.964;2023-04-19T08:25:51;10.70;91.80
9965;DHT22;5023;53.554;9.964;2023-04-19T08:30:58;10.70;91.40
9965;DHT22;5023;53.554;9.964;2023-04-19T08:36:00;10.90;91.40
9965;DHT22;5023;53.554;9.964;2023-04-19T08:41:03;11.10;91.00
9965;DHT22;5023;53.554;9.964;2023-04-19T08:46:07;11.10;89.50
9965;DHT22;5023;53.554;9.964;2023-04-19T08:51:11;11.20;89.20
9965;DHT22;5023;53.554;9.964;2023-04-19T08:56:14;11.30;88.90
9965;DHT22;5023;53.554;9.964;2023-04-19T09:01:18;11.30;87.00
9965;DHT22;5023;53.554;9.964;2023-04-19T09:06:20;11.40;83.90
9965;DHT22;5023;53.554;9.964;2023-04-19T09:11:35;11.50;82.30
9965;DHT22;5023;53.554;9.964;2023-04-19T09:16:40;11.70;82.60
9965;DHT22;5023;53.554;9.964;2023-04-19T09:21:42;11.70;79.00
9965;DHT22;5023;53.554;9.964;2023-04-19T09:26:53;11.80;76.20
9965;DHT22;5023;53.554;9.964;2023-04-19T09:32:00;11.90;73.10
9965;DHT22;5023;53.554;9.964;2023-04-19T09:37:11;12.00;71.10
9965;DHT22;5023;53.554;9.964;2023-04-19T09:42:14;12.10;66.60
9965;DHT22;5023;53.554;9.964;2023-04-19T09:47:25;12.10;62.10
9965;DHT22;5023;53.554;9.964;2023-04-19T09:52:29;12.00;63.50
9965;DHT22;5023;53.554;9.964;2023-04-19T09:57:33;12.10;63.90
9965;DHT22;5023;53.554;9.964;2023-04-19T10:02:37;12.30;61.30
9965;DHT22;5023;53.554;9.964;2023-04-19T10:07:42;12.30;59.60
9965;DHT22;5023;53.554;9.964;2023-04-19T10:12:48;12.30;59.90
9965;DHT22;5023;53.554;9.964;2023-04-19T10:17:52;12.50;57.00
9965;DHT22;5023;53.554;9.964;2023-04-19T10:22:55;12.40;54.90
9965;DHT22;5023;53.554;9.964;2023-04-19T10:27:57;12.60;53.60
9965;DHT22;5023;53.554;9.964;2023-04-19T10:33:01;12.60;52.10
9965;DHT22;5023;53.554;9.964;2023-04-19T10:38:07;12.80;49.10
9965;DHT22;5023;53.554;9.964;2023-04-19T10:43:16;12.70;48.30
9965;DHT22;5023;53.554;9.964;2023-04-19T10:48:49;12.50;47.20
9965;DHT22;5023;53.554;9.964;2023-04-19T10:53:56;12.60;45.90
9965;DHT22;5023;53.554;9.964;2023-04-19T10:59:16;12.40;45.60
9965;DHT22;5023;53.554;9.964;2023-04-19T11:10:27;12.60;43.60
9965;DHT22;5023;53.554;9.964;2023-04-19T11:15:31;12.70;43.90
9965;DHT22;5023;53.554;9.964;2023-04-19T11:20:33;12.60;41.90
9965;DHT22;5023;53.554;9.964;2023-04-19T11:25:37;12.70;42.70
9965;DHT22;5023;53.554;9.964;2023-04-19T11:30:40;12.80;43.20
9965;DHT22;5023;53.554;9.964;2023-04-19T11:35:42;12.90;41.10
9965;DHT22;5023;53.554;9.964;2023-04-19T11:40:46;13.00;41.10
9965;DHT22;5023;53.554;9.964;2023-04-19T11:45:49;13.10;40.60
9965;DHT22;5023;53.554;9.964;2023-04-19T11:50:57;13.20;41.20
9965;DHT22;5023;53.554;9.964;2023-04-19T11:56:07;13.10;40.30
9965;DHT22;5023;53.554;9.964;2023-04-19T12:01:10;13.10;40.40
9965;DHT22;5023;53.554;9.964;2023-04-19T12:06:18;13.30;39.70
9965;DHT22;5023;53.554;9.964;2023-04-19T12:11:23;13.30;41.20
9965;DHT22;5023;53.554;9.964;2023-04-19T12:16:53;13.50;40.30
9965;DHT22;5023;53.554;9.964;2023-04-19T12:22:51;13.60;38.90
9965;DHT22;5023;53.554;9.964;2023-04-19T12:27:55;13.50;39.60
9965;DHT22;5023;53.554;9.964;2023-04-19T12:32:58;13.50;39.60
9965;DHT22;5023;53.554;9.964;2023-04-19T12:38:00;13.50;38.70
9965;DHT22;5023;53.554;9.964;2023-04-19T12:43:05;13.90;38.20
9965;DHT22;5023;53.554;9.964;2023-04-19T12:48:07;13.80;39.40
9965;DHT22;5023;53.554;9.964;2023-04-19T12:53:10;13.60;40.50
9965;DHT22;5023;53.554;9.964;2023-04-19T12:58:14;13.80;40.90
9965;DHT22;5023;53.554;9.964;2023-04-19T13:03:17;13.80;40.70
9965;DHT22;5023;53.554;9.964;2023-04-19T13:08:19;13.70;40.30
9965;DHT22;5023;53.554;9.964;2023-04-19T13:13:23;13.80;40.60
9965;DHT22;5023;53.554;9.964;2023-04-19T13:18:25;13.90;39.80
9965;DHT22;5023;53.554;9.964;2023-04-19T13:23:27;13.80;39.40
9965;DHT22;5023;53.554;9.964;2023-04-19T13:28:31;13.80;39.80
9965;DHT22;5023;53.554;9.964;2023-04-19T13:33:35;14.00;39.70
9965;DHT22;5023;53.554;9.964;2023-04-19T13:38:37;14.10;39.70
9965;DHT22;5023;53.554;9.964;2023-04-19T13:43:41;14.60;39.50
9965;DHT22;5023;53.554;9.964;2023-04-19T13:48:43;14.20;39.30
9965;DHT22;5023;53.554;9.964;2023-04-19T13:53:46;13.90;39.60
9965;DHT22;5023;53.554;9.964;2023-04-19T13:58:54;14.20;40.00
9965;DHT22;5023;53.554;9.964;2023-04-19T14:03:57;14.60;39.40
9965;DHT22;5023;53.554;9.964;2023-04-19T14:09:00;14.60;38.20
9965;DHT22;5023;53.554;9.964;2023-04-19T14:14:11;14.30;38.40
9965;DHT22;5023;53.554;9.964;2023-04-19T14:19:16;14.00;38.80
9965;DHT22;5023;53.554;9.964;2023-04-19T14:24:18;13.60;39.40
9965;DHT22;5023;53.554;9.964;2023-04-19T14:29:27;13.90;39.30
9965;DHT22;5023;53.554;9.964;2023-04-19T14:34:34;13.40;38.50
9965;DHT22;5023;53.554;9.964;2023-04-19T14:39:36;13.10;38.70
9965;DHT22;5023;53.554;9.964;2023-04-19T14:44:40;12.80;39.60
9965;DHT22;5023;53.554;9.964;2023-04-19T14:49:42;12.90;39.30
9965;DHT22;5023;53.554;9.964;2023-04-19T14:54:44;13.00;39.30
9965;DHT22;5023;53.554;9.964;2023-04-19T14:59:49;12.90;39.30
9965;DHT22;5023;53.554;9.964;2023-04-19T15:04:57;12.50;38.60
9965;DHT22;5023;53.554;9.964;2023-04-19T15:10:00;12.40;39.30
9965;DHT22;5023;53.554;9.964;2023-04-19T15:15:33;12.40;38.60
9965;DHT22;5023;53.554;9.964;2023-04-19T15:20:50;12.50;39.30
9965;DHT22;5023;53.554;9.964;2023-04-19T15:25:55;12.30;38.30
9965;DHT22;5023;53.554;9.964;2023-04-19T15:31:00;12.10;37.80
9965;DHT22;5023;53.554;9.964;2023-04-19T15:36:03;12.00;36.50
9965;DHT22;5023;53.554;9.964;2023-04-19T15:41:05;12.10;36.40
9965;DHT22;5023;53.554;9.964;2023-04-19T15:46:15;12.00;35.30
9965;DHT22;5023;53.554;9.964;2023-04-19T15:51:17;12.10;35.10
9965;DHT22;5023;53.554;9.964;2023-04-19T15:56:20;12.00;35.20
9965;DHT22;5023;53.554;9.964;2023-04-19T16:01:25;12.00;36.10
9965;DHT22;5023;53.554;9.964;2023-04-19T16:06:27;12.00;37.30
9965;DHT22;5023;53.554;9.964;2023-04-19T16:11:29;12.10;38.20
9965;DHT22;5023;53.554;9.964;2023-04-19T16:16:34;12.00;39.10
9965;DHT22;5023;53.554;9.964;2023-04-19T16:21:36;11.90;39.70
9965;DHT22;5023;53.554;9.964;2023-04-19T16:26:39;11.80;40.30
9965;DHT22;5023;53.554;9.964;2023-04-19T16:31:43;11.90;41.00
9965;DHT22;5023;53.554;9.964;2023-04-19T16:36:47;12.00;41.60
9965;DHT22;5023;53.554;9.964;2023-04-19T16:41:50;12.10;41.70
9965;DHT22;5023;53.554;9.964;2023-04-19T16:46:54;12.00;41.30
9965;DHT22;5023;53.554;9.964;2023-04-19T16:51:57;11.90;41.30
9965;DHT22;5023;53.554;9.964;2023-04-19T16:57:00;11.80;42.00
9965;DHT22;5023;53.554;9.964;2023-04-19T17:02:04;11.70;42.80
9965;DHT22;5023;53.554;9.964;2023-04-19T17:07:09;11.60;42.90
9965;DHT22;5023;53.554;9.964;2023-04-19T17:12:11;11.50;43.40
9965;DHT22;5023;53.554;9.964;2023-04-19T17:17:14;11.60;44.00
9965;DHT22;5023;53.554;9.964;2023-04-19T17:22:19;11.50;44.00
9965;DHT22;5023;53.554;9.964;2023-04-19T17:27:21;11.30;44.50
9965;DHT22;5023;53.554;9.964;2023-04-19T17:32:27;11.20;44.90
9965;DHT22;5023;53.554;9.964;2023-04-19T17:37:33;11.10;45.40
9965;DHT22;5023;53.554;9.964;2023-04-19T17:42:35;11.00;45.80
9965;DHT22;5023;53.554;9.964;2023-04-19T17:47:39;11.00;46.70
9965;DHT22;5023;53.554;9.964;2023-04-19T17:52:41;10.90;47.60
9965;DHT22;5023;53.554;9.964;2023-04-19T17:57:45;10.80;48.40
9965;DHT22;5023;53.554;9.964;2023-04-19T18:02:49;10.80;49.10
9965;DHT22;5023;53.554;9.964;2023-04-19T18:07:51;10.70;49.70
9965;DHT22;5023;53.554;9.964;2023-04-19T18:12:54;10.80;50.20
9965;DHT22;5023;53.554;9.964;2023-04-19T18:17:59;10.70;50.60
9965;DHT22;5023;53.554;9.964;2023-04-19T18:23:02;10.70;50.10
9965;DHT22;5023;53.554;9.964;2023-04-19T18:28:04;10.60;50.20
9965;DHT22;5023;53.554;9.964;2023-04-19T18:33:08;10.50;50.60
9965;DHT22;5023;53.554;9.964;2023-04-19T18:38:10;10.50;51.10
9965;DHT22;5023;53.554;9.964;2023-04-19T18:43:12;10.40;51.60
9965;DHT22;5023;53.554;9.964;2023-04-19T18:48:23;10.40;52.00
9965;DHT22;5023;53.554;9.964;2023-04-19T18:53:32;10.30;52.60
9965;DHT22;5023;53.554;9.964;2023-04-19T18:58:34;10.20;53.20
9965;DHT22;5023;53.554;9.964;2023-04-19T19:03:40;10.10;53.30
9965;DHT22;5023;53.554;9.964;2023-04-19T19:08:42;10.10;54.10
9965;DHT22;5023;53.554;9.964;2023-04-19T19:13:45;10.00;55.10
9965;DHT22;5023;53.554;9.964;2023-04-19T19:18:48;10.00;55.90
9965;DHT22;5023;53.554;9.964;2023-04-19T19:23:51;9.90;57.40
9965;DHT22;5023;53.554;9.964;2023-04-19T19:28:55;9.90;57.60
9965;DHT22;5023;53.554;9.964;2023-04-19T19:34:00;9.90;58.20
9965;DHT22;5023;53.554;9.964;2023-04-19T19:39:03;9.80;58.60
9965;DHT22;5023;53.554;9.964;2023-04-19T19:44:08;9.80;59.10
9965;DHT22;5023;53.554;9.964;2023-04-19T19:49:13;9.70;59.60
9965;DHT22;5023;53.554;9.964;2023-04-19T19:54:15;9.70;60.40
9965;DHT22;5023;53.554;9.964;2023-04-19T19:59:18;9.50;61.30
9965;DHT22;5023;53.554;9.964;2023-04-19T20:04:21;9.50;61.90
9965;DHT22;5023;53.554;9.964;2023-04-19T20:09:23;9.40;62.10
9965;DHT22;5023;53.554;9.964;2023-04-19T20:14:27;9.40;62.50
9965;DHT22;5023;53.554;9.964;2023-04-19T20:19:31;9.40;63.20
9965;DHT22;5023;53.554;9.964;2023-04-19T20:24:34;9.40;64.70
9965;DHT22;5023;53.554;9.964;2023-04-19T20:29:37;9.20;66.20
9965;DHT22;5023;53.554;9.964;2023-04-19T20:34:41;9.30;68.60
9965;DHT22;5023;53.554;9.964;2023-04-19T20:39:44;9.30;70.60
9965;DHT22;5023;53.554;9.964;2023-04-19T20:44:47;9.30;73.60
9965;DHT22;5023;53.554;9.964;2023-04-19T20:49:51;9.30;78.00
9965;DHT22;5023;53.554;9.964;2023-04-19T20:54:53;9.20;91.90
9965;DHT22;5023;53.554;9.964;2023-04-19T20:59:56;9.10;99.90
9965;DHT22;5023;53.554;9.964;2023-04-19T21:05:00;9.10;99.90
9965;DHT22;5023;53.554;9.964;2023-04-19T21:10:02;9.10;98.70
9965;DHT22;5023;53.554;9.964;2023-04-19T21:15:06;9.20;97.00
9965;DHT22;5023;53.554;9.964;2023-04-19T21:20:11;9.30;94.20
9965;DHT22;5023;53.554;9.964;2023-04-19T21:25:14;9.40;92.90
9965;DHT22;5023;53.554;9.964;2023-04-19T21:30:17;9.40;91.30
9965;DHT22;5023;53.554;9.964;2023-04-19T21:35:22;9.50;90.50
9965;DHT22;5023;53.554;9.964;2023-04-19T21:40:25;9.50;88.00
9965;DHT22;5023;53.554;9.964;2023-04-19T21:45:28;9.60;85.70
9965;DHT22;5023;53.554;9.964;2023-04-19T21:50:35;9.70;82.20
9965;DHT22;5023;53.554;9.964;2023-04-19T21:55:37;9.70;80.10
9965;DHT22;5023;53.554;9.964;2023-04-19T22:00:40;9.70;78.50
9965;DHT22;5023;53.554;9.964;2023-04-19T22:05:45;9.80;76.30
9965;DHT22;5023;53.554;9.964;2023-04-19T22:10:47;9.80;74.00
9965;DHT22;5023;53.554;9.964;2023-04-19T22:15:54;10.00;70.80
9965;DHT22;5023;53.554;9.964;2023-04-19T22:20:58;9.90;70.50
9965;DHT22;5023;53.554;9.964;2023-04-19T22:26:02;9.90;72.60
9965;DHT22;5023;53.554;9.964;2023-04-19T22:31:07;9.70;78.50
9965;DHT22;5023;53.554;9.964;2023-04-19T22:36:12;9.50;80.20
9965;DHT22;5023;53.554;9.964;2023-04-19T22:41:14;9.40;78.50
9965;DHT22;5023;53.554;9.964;2023-04-19T22:46:16;9.40;76.90
9965;DHT22;5023;53.554;9.964;2023-04-19T22:51:21;9.50;72.80
9965;DHT22;5023;53.554;9.964;2023-04-19T22:56:24;9.60;71.10
9965;DHT22;5023;53.554;9.964;2023-04-19T23:01:26;9.50;74.70
9965;DHT22;5023;53.554;9.964;2023-04-19T23:06:29;9.50;75.20
9965;DHT22;5023;53.554;9.964;2023-04-19T23:11:32;9.50;72.40
9965;DHT22;5023;53.554;9.964;2023-04-19T23:16:34;9.50;77.30
9965;DHT22;5023;53.554;9.964;2023-04-19T23:21:39;9.40;78.40
9965;DHT22;5023;53.554;9.964;2023-04-19T23:26:41;9.40;77.30
9965;DHT22;5023;53.554;9.964;2023-04-19T23:31:44;9.30;79.70
9965;DHT22;5023;53.554;9.964;2023-04-19T23:36:48;9.20;79.80
9965;DHT22;5023;53.554;9.964;2023-04-19T23:41:50;9.20;80.60
9965;DHT22;5023;53.554;9.964;2023-04-19T23:46:53;9.20;79.60
9965;DHT22;5023;53.554;9.964;2023-04-19T23:51:56;9.20;79.00
9965;DHT22;5023;53.554;9.964;2023-04-19T23:56:59;9.10;80.90
